Terminal Aerodrome Forecast
Issued by NWS

Home | Current Version | Previous Version | Text Only | Print | Product List | Glossary On
Versions: 1 2 3 4 5 6 7 8 9 10 11 12 13 14 15 16 17
000
FTAK31 PANC 232335
TAFACD
TAF
PACD 232335Z 2400/2424 33010KT P6SM FEW016
     FM240300 01011KT P6SM FEW250
     FM241200 06008KT P6SM BKN020
     FM241800 09012KT P6SM SCT020=

USA.gov is the U.S. government's official web portal to all federal, state and local government web resources and services.